Главная страница
METAR-TAF:

METAR-TAF

Аэропорты :

Токио-Haneda, Япония

Токио

широта: 35-33N, долгота: 139-47E, высота над уровнем моря: 5 м

Текущие метеонаблюдения

Эта сводка был подготовлена 23 минут назад, в 05:30 UTC
Ветер 14 Узел от западный-юго-западный
Температура 6°C
Влажность 31%
Давление 1001 hPa
Видимость 10 км и более
небольшая облачность на высоте 4000 фута
Отдельные облака на высоте 6000 фута

METAR: RJTT 240530Z 25014KT 9999 FEW040 SCT060 06/M10 Q1001 NOSIG RMK 1CU040 3SC060 A2957

Время: 14:53 (05:53 UTC)

Прогноз

Эта сводка был подготовлена 40 минут назад, в 05:13 UTC
Прогноз действительный с 24-го 06 UTC до 25-го 12 UTC
Ветер 16 Узел от западный-юго-западный
Видимость 10 км и более
небольшая облачность на высоте 3000 фута
Отдельные облака на высоте 6000 фута
изменения
С 24-го 08 UTC до 24-го 10 UTC
Ветер 16 Узел от северо-западный

TAF: RJTT 240513Z 2406/2512 25016KT 9999 FEW030 SCT060 BECMG 2408/2410 32016KT

Метеонаблюдения и прогнозы для более 4000 аэропортов (сводки METAR и TAF).

Имеющиеся станции представлены на карте желтыми и красными точками.

Чтобы увидеть название станции, наведите на нее мышь.

Затем щелкните, чтобы увидеть метеонаблюдения и метеопрогнозы.

Управление картой: чтобы увеличить масштаб, щелкните зеленые кнопки с черным крестиком; чтобы уменьшить масштаб, щелкните зеленую кнопку с тире; для просмотра соседних карт щелкайте зеленые стрелки.


METAR-TAF: